sensor_id;sensor_type;location;lat;lon;timestamp;temperature;humidity
12761;DHT22;6444;49.742;6.114;2023-03-20T00:01:16;14.10;99.90
12761;DHT22;6444;49.742;6.114;2023-03-20T00:03:42;13.90;99.90
12761;DHT22;6444;49.742;6.114;2023-03-20T00:06:14;13.90;99.90
12761;DHT22;6444;49.742;6.114;2023-03-20T00:08:41;14.10;99.90
12761;DHT22;6444;49.742;6.114;2023-03-20T00:11:12;14.10;99.90
12761;DHT22;6444;49.742;6.114;2023-03-20T00:13:34;14.30;99.90
12761;DHT22;6444;49.742;6.114;2023-03-20T00:16:00;14.30;99.90
12761;DHT22;6444;49.742;6.114;2023-03-20T00:18:27;14.20;99.90
12761;DHT22;6444;49.742;6.114;2023-03-20T00:20:54;14.30;99.90
12761;DHT22;6444;49.742;6.114;2023-03-20T00:23:20;14.30;99.90
12761;DHT22;6444;49.742;6.114;2023-03-20T00:25:47;14.20;99.90
12761;DHT22;6444;49.742;6.114;2023-03-20T00:30:40;14.20;99.90
12761;DHT22;6444;49.742;6.114;2023-03-20T00:33:07;13.90;99.90
12761;DHT22;6444;49.742;6.114;2023-03-20T00:35:34;14.00;99.90
12761;DHT22;6444;49.742;6.114;2023-03-20T00:38:00;14.00;99.90
12761;DHT22;6444;49.742;6.114;2023-03-20T00:40:30;13.50;99.90
12761;DHT22;6444;49.742;6.114;2023-03-20T00:43:00;13.50;99.90
12761;DHT22;6444;49.742;6.114;2023-03-20T00:45:26;13.60;99.90
12761;DHT22;6444;49.742;6.114;2023-03-20T00:47:52;13.80;99.90
12761;DHT22;6444;49.742;6.114;2023-03-20T00:50:23;13.50;99.90
12761;DHT22;6444;49.742;6.114;2023-03-20T00:52:49;13.60;99.90
12761;DHT22;6444;49.742;6.114;2023-03-20T00:55:15;12.90;99.90
12761;DHT22;6444;49.742;6.114;2023-03-20T00:57:50;12.70;99.90
12761;DHT22;6444;49.742;6.114;2023-03-20T01:00:33;12.70;99.90
12761;DHT22;6444;49.742;6.114;2023-03-20T01:02:58;12.90;99.90
12761;DHT22;6444;49.742;6.114;2023-03-20T01:05:25;13.00;99.90
12761;DHT22;6444;49.742;6.114;2023-03-20T01:07:52;12.80;99.90
12761;DHT22;6444;49.742;6.114;2023-03-20T01:10:18;12.90;99.90
12761;DHT22;6444;49.742;6.114;2023-03-20T01:12:45;13.10;99.90
12761;DHT22;6444;49.742;6.114;2023-03-20T01:15:22;13.10;99.90
12761;DHT22;6444;49.742;6.114;2023-03-20T01:17:48;13.30;99.90
12761;DHT22;6444;49.742;6.114;2023-03-20T01:20:18;13.50;99.90
12761;DHT22;6444;49.742;6.114;2023-03-20T01:22:41;13.50;99.90
12761;DHT22;6444;49.742;6.114;2023-03-20T01:25:07;13.50;99.90
12761;DHT22;6444;49.742;6.114;2023-03-20T01:27:34;13.40;99.90
12761;DHT22;6444;49.742;6.114;2023-03-20T01:30:01;13.50;99.90
12761;DHT22;6444;49.742;6.114;2023-03-20T01:32:28;13.40;99.90
12761;DHT22;6444;49.742;6.114;2023-03-20T01:34:54;13.20;99.90
12761;DHT22;6444;49.742;6.114;2023-03-20T01:37:25;13.10;99.90
12761;DHT22;6444;49.742;6.114;2023-03-20T01:39:52;13.30;99.90
12761;DHT22;6444;49.742;6.114;2023-03-20T01:42:18;13.30;99.90
12761;DHT22;6444;49.742;6.114;2023-03-20T01:44:45;13.60;99.90
12761;DHT22;6444;49.742;6.114;2023-03-20T01:47:19;13.70;99.90
12761;DHT22;6444;49.742;6.114;2023-03-20T01:50:22;13.80;99.90
12761;DHT22;6444;49.742;6.114;2023-03-20T01:52:51;13.80;99.90
12761;DHT22;6444;49.742;6.114;2023-03-20T01:55:16;13.50;99.90
12761;DHT22;6444;49.742;6.114;2023-03-20T01:57:43;13.50;99.90
12761;DHT22;6444;49.742;6.114;2023-03-20T02:00:11;13.40;99.90
12761;DHT22;6444;49.742;6.114;2023-03-20T02:02:36;13.20;99.90
12761;DHT22;6444;49.742;6.114;2023-03-20T02:05:04;13.30;99.90
12761;DHT22;6444;49.742;6.114;2023-03-20T02:07:30;13.40;99.90
12761;DHT22;6444;49.742;6.114;2023-03-20T02:09:57;13.50;99.90
12761;DHT22;6444;49.742;6.114;2023-03-20T02:12:24;13.50;99.90
12761;DHT22;6444;49.742;6.114;2023-03-20T02:14:50;12.60;99.90
12761;DHT22;6444;49.742;6.114;2023-03-20T02:17:17;12.70;99.90
12761;DHT22;6444;49.742;6.114;2023-03-20T02:25:46;13.30;99.90
12761;DHT22;6444;49.742;6.114;2023-03-20T02:33:51;13.30;99.90
12761;DHT22;6444;49.742;6.114;2023-03-20T02:44:42;12.90;99.90
12761;DHT22;6444;49.742;6.114;2023-03-20T02:55:26;12.50;99.90
12761;DHT22;6444;49.742;6.114;2023-03-20T02:58:02;12.20;99.90
12761;DHT22;6444;49.742;6.114;2023-03-20T03:00:32;12.20;99.90
12761;DHT22;6444;49.742;6.114;2023-03-20T03:05:32;11.30;99.90
12761;DHT22;6444;49.742;6.114;2023-03-20T03:07:56;11.70;99.90
12761;DHT22;6444;49.742;6.114;2023-03-20T03:10:24;11.40;99.90
12761;DHT22;6444;49.742;6.114;2023-03-20T03:12:50;11.60;99.90
12761;DHT22;6444;49.742;6.114;2023-03-20T03:15:32;11.50;99.90
12761;DHT22;6444;49.742;6.114;2023-03-20T03:17:55;11.40;99.90
12761;DHT22;6444;49.742;6.114;2023-03-20T03:20:37;10.50;99.90
12761;DHT22;6444;49.742;6.114;2023-03-20T03:22:57;10.50;99.90
12761;DHT22;6444;49.742;6.114;2023-03-20T03:25:25;10.10;99.90
12761;DHT22;6444;49.742;6.114;2023-03-20T03:30:31;9.20;99.90
12761;DHT22;6444;49.742;6.114;2023-03-20T03:35:34;9.60;99.90
12761;DHT22;6444;49.742;6.114;2023-03-20T03:38:09;9.80;99.90
12761;DHT22;6444;49.742;6.114;2023-03-20T03:43:16;9.80;99.90
12761;DHT22;6444;49.742;6.114;2023-03-20T03:45:44;9.70;99.90
12761;DHT22;6444;49.742;6.114;2023-03-20T03:48:20;9.60;99.90
12761;DHT22;6444;49.742;6.114;2023-03-20T03:50:52;9.10;99.90
12761;DHT22;6444;49.742;6.114;2023-03-20T03:53:17;9.40;99.90
12761;DHT22;6444;49.742;6.114;2023-03-20T03:55:44;9.60;99.90
12761;DHT22;6444;49.742;6.114;2023-03-20T04:00:43;9.30;99.90
12761;DHT22;6444;49.742;6.114;2023-03-20T04:03:10;9.30;99.90
12761;DHT22;6444;49.742;6.114;2023-03-20T04:05:37;9.30;99.90
12761;DHT22;6444;49.742;6.114;2023-03-20T04:08:05;9.30;99.90
12761;DHT22;6444;49.742;6.114;2023-03-20T04:10:30;8.60;99.90
12761;DHT22;6444;49.742;6.114;2023-03-20T04:12:56;8.50;99.90
12761;DHT22;6444;49.742;6.114;2023-03-20T04:15:23;8.40;99.90
12761;DHT22;6444;49.742;6.114;2023-03-20T04:17:50;7.90;99.90
12761;DHT22;6444;49.742;6.114;2023-03-20T04:20:16;8.30;99.90
12761;DHT22;6444;49.742;6.114;2023-03-20T04:22:43;8.70;99.90
12761;DHT22;6444;49.742;6.114;2023-03-20T04:25:14;8.80;99.90
12761;DHT22;6444;49.742;6.114;2023-03-20T04:27:36;9.20;99.90
12761;DHT22;6444;49.742;6.114;2023-03-20T04:30:03;9.60;99.90
12761;DHT22;6444;49.742;6.114;2023-03-20T04:32:29;9.50;99.90
12761;DHT22;6444;49.742;6.114;2023-03-20T04:34:56;9.80;99.90
12761;DHT22;6444;49.742;6.114;2023-03-20T04:37:23;10.10;99.90
12761;DHT22;6444;49.742;6.114;2023-03-20T04:39:50;10.20;99.90
12761;DHT22;6444;49.742;6.114;2023-03-20T04:42:16;10.40;99.90
12761;DHT22;6444;49.742;6.114;2023-03-20T04:44:43;10.40;99.90
12761;DHT22;6444;49.742;6.114;2023-03-20T04:47:10;10.50;99.90
12761;DHT22;6444;49.742;6.114;2023-03-20T04:49:36;10.60;99.90
12761;DHT22;6444;49.742;6.114;2023-03-20T04:52:03;10.60;99.90
12761;DHT22;6444;49.742;6.114;2023-03-20T04:54:29;10.10;99.90
12761;DHT22;6444;49.742;6.114;2023-03-20T04:56:56;10.00;99.90
12761;DHT22;6444;49.742;6.114;2023-03-20T04:59:23;10.00;99.90
12761;DHT22;6444;49.742;6.114;2023-03-20T05:01:49;10.20;99.90
12761;DHT22;6444;49.742;6.114;2023-03-20T05:04:16;9.90;99.90
12761;DHT22;6444;49.742;6.114;2023-03-20T05:06:43;10.20;99.90
12761;DHT22;6444;49.742;6.114;2023-03-20T05:09:09;10.40;99.90
12761;DHT22;6444;49.742;6.114;2023-03-20T05:11:36;10.40;99.90
12761;DHT22;6444;49.742;6.114;2023-03-20T05:14:02;10.30;99.90
12761;DHT22;6444;49.742;6.114;2023-03-20T05:16:29;10.20;99.90
12761;DHT22;6444;49.742;6.114;2023-03-20T05:18:56;9.30;99.90
12761;DHT22;6444;49.742;6.114;2023-03-20T05:21:23;8.00;99.90
12761;DHT22;6444;49.742;6.114;2023-03-20T05:23:50;8.00;99.90
12761;DHT22;6444;49.742;6.114;2023-03-20T05:26:16;8.30;99.90
12761;DHT22;6444;49.742;6.114;2023-03-20T05:28:43;8.80;99.90
12761;DHT22;6444;49.742;6.114;2023-03-20T05:31:10;9.10;99.90
12761;DHT22;6444;49.742;6.114;2023-03-20T05:33:37;9.20;99.90
12761;DHT22;6444;49.742;6.114;2023-03-20T05:36:04;9.20;99.90
12761;DHT22;6444;49.742;6.114;2023-03-20T05:38:30;9.30;99.90
12761;DHT22;6444;49.742;6.114;2023-03-20T05:40:57;9.20;99.90
12761;DHT22;6444;49.742;6.114;2023-03-20T05:43:24;9.30;99.90
12761;DHT22;6444;49.742;6.114;2023-03-20T05:45:50;9.40;99.90
12761;DHT22;6444;49.742;6.114;2023-03-20T05:48:17;9.50;99.90
12761;DHT22;6444;49.742;6.114;2023-03-20T05:50:44;9.50;99.90
12761;DHT22;6444;49.742;6.114;2023-03-20T05:53:10;9.40;99.90
12761;DHT22;6444;49.742;6.114;2023-03-20T05:55:38;9.50;99.90
12761;DHT22;6444;49.742;6.114;2023-03-20T05:58:04;9.50;99.90
12761;DHT22;6444;49.742;6.114;2023-03-20T06:00:31;9.60;99.90
12761;DHT22;6444;49.742;6.114;2023-03-20T06:02:58;9.60;99.90
12761;DHT22;6444;49.742;6.114;2023-03-20T06:05:24;9.40;99.90
12761;DHT22;6444;49.742;6.114;2023-03-20T06:07:52;9.60;99.90
12761;DHT22;6444;49.742;6.114;2023-03-20T06:10:18;9.50;99.90
12761;DHT22;6444;49.742;6.114;2023-03-20T06:12:45;9.60;99.90
12761;DHT22;6444;49.742;6.114;2023-03-20T06:15:11;9.60;99.90
12761;DHT22;6444;49.742;6.114;2023-03-20T06:17:39;9.40;99.90
12761;DHT22;6444;49.742;6.114;2023-03-20T06:20:06;9.30;99.90
12761;DHT22;6444;49.742;6.114;2023-03-20T06:22:32;9.60;99.90
12761;DHT22;6444;49.742;6.114;2023-03-20T06:25:00;8.70;99.90
12761;DHT22;6444;49.742;6.114;2023-03-20T06:27:26;8.70;99.90
12761;DHT22;6444;49.742;6.114;2023-03-20T06:29:53;8.00;99.90
12761;DHT22;6444;49.742;6.114;2023-03-20T06:32:20;7.70;99.90
12761;DHT22;6444;49.742;6.114;2023-03-20T06:34:47;7.50;99.90
12761;DHT22;6444;49.742;6.114;2023-03-20T06:37:14;7.50;99.90
12761;DHT22;6444;49.742;6.114;2023-03-20T06:39:40;7.50;99.90
12761;DHT22;6444;49.742;6.114;2023-03-20T06:42:07;8.00;99.90
12761;DHT22;6444;49.742;6.114;2023-03-20T06:44:34;8.60;99.90
12761;DHT22;6444;49.742;6.114;2023-03-20T06:47:01;8.20;99.90
12761;DHT22;6444;49.742;6.114;2023-03-20T06:49:28;8.20;99.90
12761;DHT22;6444;49.742;6.114;2023-03-20T06:51:54;8.00;99.90
12761;DHT22;6444;49.742;6.114;2023-03-20T06:54:21;7.80;99.90
12761;DHT22;6444;49.742;6.114;2023-03-20T06:56:48;7.80;99.90
12761;DHT22;6444;49.742;6.114;2023-03-20T06:59:14;8.40;99.90
12761;DHT22;6444;49.742;6.114;2023-03-20T07:01:41;8.50;99.90
12761;DHT22;6444;49.742;6.114;2023-03-20T07:04:07;8.50;99.90
12761;DHT22;6444;49.742;6.114;2023-03-20T07:06:34;9.00;99.90
12761;DHT22;6444;49.742;6.114;2023-03-20T07:09:01;9.50;99.90
12761;DHT22;6444;49.742;6.114;2023-03-20T07:11:28;9.90;99.90
12761;DHT22;6444;49.742;6.114;2023-03-20T07:13:55;9.80;99.90
12761;DHT22;6444;49.742;6.114;2023-03-20T07:16:21;10.30;99.90
12761;DHT22;6444;49.742;6.114;2023-03-20T07:18:48;9.80;99.90
12761;DHT22;6444;49.742;6.114;2023-03-20T07:21:17;9.30;99.90
12761;DHT22;6444;49.742;6.114;2023-03-20T07:23:44;8.70;99.90
12761;DHT22;6444;49.742;6.114;2023-03-20T07:26:10;8.80;99.90
12761;DHT22;6444;49.742;6.114;2023-03-20T07:28:37;9.00;99.90
12761;DHT22;6444;49.742;6.114;2023-03-20T07:31:04;9.00;99.90
12761;DHT22;6444;49.742;6.114;2023-03-20T07:33:30;8.60;99.90
12761;DHT22;6444;49.742;6.114;2023-03-20T07:35:58;9.00;99.90
12761;DHT22;6444;49.742;6.114;2023-03-20T07:38:24;9.00;99.90
12761;DHT22;6444;49.742;6.114;2023-03-20T07:40:52;8.70;99.90
12761;DHT22;6444;49.742;6.114;2023-03-20T07:43:18;8.70;99.90
12761;DHT22;6444;49.742;6.114;2023-03-20T07:45:45;8.60;99.90
12761;DHT22;6444;49.742;6.114;2023-03-20T07:48:12;8.60;99.90
12761;DHT22;6444;49.742;6.114;2023-03-20T07:50:38;8.30;99.90
12761;DHT22;6444;49.742;6.114;2023-03-20T07:53:05;8.20;99.90
12761;DHT22;6444;49.742;6.114;2023-03-20T07:55:32;8.20;99.90
12761;DHT22;6444;49.742;6.114;2023-03-20T07:57:58;8.60;99.90
12761;DHT22;6444;49.742;6.114;2023-03-20T08:00:26;8.90;99.90
12761;DHT22;6444;49.742;6.114;2023-03-20T08:02:52;8.90;99.90
12761;DHT22;6444;49.742;6.114;2023-03-20T08:05:19;8.70;99.90
12761;DHT22;6444;49.742;6.114;2023-03-20T08:07:45;9.10;99.90
12761;DHT22;6444;49.742;6.114;2023-03-20T08:10:17;9.30;99.90
12761;DHT22;6444;49.742;6.114;2023-03-20T08:12:43;9.30;99.90
12761;DHT22;6444;49.742;6.114;2023-03-20T08:15:11;10.20;99.90
12761;DHT22;6444;49.742;6.114;2023-03-20T08:17:40;10.10;99.90
12761;DHT22;6444;49.742;6.114;2023-03-20T08:20:04;10.50;99.90
12761;DHT22;6444;49.742;6.114;2023-03-20T08:22:31;10.70;99.90
12761;DHT22;6444;49.742;6.114;2023-03-20T08:24:57;10.80;99.90
12761;DHT22;6444;49.742;6.114;2023-03-20T08:27:24;11.80;99.90
12761;DHT22;6444;49.742;6.114;2023-03-20T08:29:51;12.30;99.90
12761;DHT22;6444;49.742;6.114;2023-03-20T08:32:17;13.10;99.90
12761;DHT22;6444;49.742;6.114;2023-03-20T08:34:44;13.10;99.90
12761;DHT22;6444;49.742;6.114;2023-03-20T08:37:11;12.50;99.90
12761;DHT22;6444;49.742;6.114;2023-03-20T08:39:37;12.80;99.90
12761;DHT22;6444;49.742;6.114;2023-03-20T08:42:04;12.80;99.90
12761;DHT22;6444;49.742;6.114;2023-03-20T08:44:31;12.30;99.90
12761;DHT22;6444;49.742;6.114;2023-03-20T08:46:58;12.20;99.90
12761;DHT22;6444;49.742;6.114;2023-03-20T08:49:25;11.60;99.90
12761;DHT22;6444;49.742;6.114;2023-03-20T08:51:51;11.00;99.90
12761;DHT22;6444;49.742;6.114;2023-03-20T08:54:18;10.50;99.90
12761;DHT22;6444;49.742;6.114;2023-03-20T08:56:44;10.30;99.90
12761;DHT22;6444;49.742;6.114;2023-03-20T08:59:11;10.30;99.90
12761;DHT22;6444;49.742;6.114;2023-03-20T09:01:38;11.20;99.90
12761;DHT22;6444;49.742;6.114;2023-03-20T09:04:05;11.20;99.90
12761;DHT22;6444;49.742;6.114;2023-03-20T09:06:34;11.20;99.90
12761;DHT22;6444;49.742;6.114;2023-03-20T09:08:58;11.30;99.90
12761;DHT22;6444;49.742;6.114;2023-03-20T09:11:25;11.90;99.90
12761;DHT22;6444;49.742;6.114;2023-03-20T09:13:52;11.80;99.90
12761;DHT22;6444;49.742;6.114;2023-03-20T09:16:19;12.70;99.90
12761;DHT22;6444;49.742;6.114;2023-03-20T09:18:46;12.70;99.90
12761;DHT22;6444;49.742;6.114;2023-03-20T09:21:12;13.80;99.90
12761;DHT22;6444;49.742;6.114;2023-03-20T09:23:39;14.30;99.90
12761;DHT22;6444;49.742;6.114;2023-03-20T09:26:05;14.20;99.90
12761;DHT22;6444;49.742;6.114;2023-03-20T09:28:33;13.60;99.90
12761;DHT22;6444;49.742;6.114;2023-03-20T09:31:00;13.50;99.90
12761;DHT22;6444;49.742;6.114;2023-03-20T09:33:26;13.40;99.90
12761;DHT22;6444;49.742;6.114;2023-03-20T09:35:53;12.50;99.90
12761;DHT22;6444;49.742;6.114;2023-03-20T09:38:19;11.80;99.90
12761;DHT22;6444;49.742;6.114;2023-03-20T09:40:56;12.10;99.90
12761;DHT22;6444;49.742;6.114;2023-03-20T09:46:22;12.30;99.90
12761;DHT22;6444;49.742;6.114;2023-03-20T09:53:54;11.90;99.90
12761;DHT22;6444;49.742;6.114;2023-03-20T09:56:24;11.60;99.90
12761;DHT22;6444;49.742;6.114;2023-03-20T09:59:02;11.60;99.90
12761;DHT22;6444;49.742;6.114;2023-03-20T10:01:34;11.50;99.90
12761;DHT22;6444;49.742;6.114;2023-03-20T10:04:00;11.20;99.90
12761;DHT22;6444;49.742;6.114;2023-03-20T10:06:26;10.90;99.90
12761;DHT22;6444;49.742;6.114;2023-03-20T10:08:53;11.10;99.90
12761;DHT22;6444;49.742;6.114;2023-03-20T10:19:28;10.50;99.90
12761;DHT22;6444;49.742;6.114;2023-03-20T10:22:17;10.40;99.90
12761;DHT22;6444;49.742;6.114;2023-03-20T10:24:43;10.40;99.90
12761;DHT22;6444;49.742;6.114;2023-03-20T10:38:53;11.50;99.90
12761;DHT22;6444;49.742;6.114;2023-03-20T10:41:21;11.50;99.90
12761;DHT22;6444;49.742;6.114;2023-03-20T10:43:48;11.10;99.90
12761;DHT22;6444;49.742;6.114;2023-03-20T10:46:30;11.10;99.90
12761;DHT22;6444;49.742;6.114;2023-03-20T10:51:43;11.30;99.90
12761;DHT22;6444;49.742;6.114;2023-03-20T10:54:30;11.10;99.90
12761;DHT22;6444;49.742;6.114;2023-03-20T10:56:41;11.20;99.90
12761;DHT22;6444;49.742;6.114;2023-03-20T10:59:12;11.20;99.90
12761;DHT22;6444;49.742;6.114;2023-03-20T11:01:33;11.00;99.90
12761;DHT22;6444;49.742;6.114;2023-03-20T11:03:59;10.80;99.90
12761;DHT22;6444;49.742;6.114;2023-03-20T11:06:32;11.10;99.90
12761;DHT22;6444;49.742;6.114;2023-03-20T11:09:08;11.30;99.90
12761;DHT22;6444;49.742;6.114;2023-03-20T11:11:26;11.10;99.90
12761;DHT22;6444;49.742;6.114;2023-03-20T11:13:52;11.30;99.90
12761;DHT22;6444;49.742;6.114;2023-03-20T11:18:45;11.40;99.90
12761;DHT22;6444;49.742;6.114;2023-03-20T11:21:22;11.20;99.90
12761;DHT22;6444;49.742;6.114;2023-03-20T11:23:45;11.60;99.90
12761;DHT22;6444;49.742;6.114;2023-03-20T11:26:15;11.60;99.90
12761;DHT22;6444;49.742;6.114;2023-03-20T11:28:46;11.60;99.90
12761;DHT22;6444;49.742;6.114;2023-03-20T11:33:52;12.30;99.90
12761;DHT22;6444;49.742;6.114;2023-03-20T11:36:24;13.10;99.90
12761;DHT22;6444;49.742;6.114;2023-03-20T11:38:50;13.60;99.90
12761;DHT22;6444;49.742;6.114;2023-03-20T11:41:23;13.50;99.90
12761;DHT22;6444;49.742;6.114;2023-03-20T11:43:49;13.00;99.90
12761;DHT22;6444;49.742;6.114;2023-03-20T11:46:15;13.30;99.90
12761;DHT22;6444;49.742;6.114;2023-03-20T11:48:43;13.10;99.90
12761;DHT22;6444;49.742;6.114;2023-03-20T11:51:09;13.50;99.90
12761;DHT22;6444;49.742;6.114;2023-03-20T11:53:54;13.40;99.90
12761;DHT22;6444;49.742;6.114;2023-03-20T11:56:21;12.90;99.90
12761;DHT22;6444;49.742;6.114;2023-03-20T11:58:57;12.70;99.90
12761;DHT22;6444;49.742;6.114;2023-03-20T12:01:22;13.60;99.90
12761;DHT22;6444;49.742;6.114;2023-03-20T12:03:59;13.00;99.90
12761;DHT22;6444;49.742;6.114;2023-03-20T12:06:20;13.00;99.90
12761;DHT22;6444;49.742;6.114;2023-03-20T12:09:02;14.10;99.90
12761;DHT22;6444;49.742;6.114;2023-03-20T12:12:15;15.00;99.90
12761;DHT22;6444;49.742;6.114;2023-03-20T12:14:18;14.80;99.90
12761;DHT22;6444;49.742;6.114;2023-03-20T12:16:41;14.10;99.90
12761;DHT22;6444;49.742;6.114;2023-03-20T12:19:12;14.40;99.90
12761;DHT22;6444;49.742;6.114;2023-03-20T12:24:30;16.20;99.90
12761;DHT22;6444;49.742;6.114;2023-03-20T12:32:34;16.00;99.90
12761;DHT22;6444;49.742;6.114;2023-03-20T12:34:58;16.20;99.90
12761;DHT22;6444;49.742;6.114;2023-03-20T12:37:28;15.00;99.90
12761;DHT22;6444;49.742;6.114;2023-03-20T12:39:56;14.40;99.90
12761;DHT22;6444;49.742;6.114;2023-03-20T12:45:15;15.40;99.90
12761;DHT22;6444;49.742;6.114;2023-03-20T12:50:25;15.60;99.90
12761;DHT22;6444;49.742;6.114;2023-03-20T12:53:30;15.60;99.90
12761;DHT22;6444;49.742;6.114;2023-03-20T12:58:35;14.70;99.90
12761;DHT22;6444;49.742;6.114;2023-03-20T13:01:20;13.80;99.90
12761;DHT22;6444;49.742;6.114;2023-03-20T13:04:10;13.30;99.90
12761;DHT22;6444;49.742;6.114;2023-03-20T13:11:57;13.10;99.90
12761;DHT22;6444;49.742;6.114;2023-03-20T13:14:39;13.20;99.90
12761;DHT22;6444;49.742;6.114;2023-03-20T13:17:26;13.50;99.90
12761;DHT22;6444;49.742;6.114;2023-03-20T13:20:10;13.30;99.90
12761;DHT22;6444;49.742;6.114;2023-03-20T13:27:53;12.60;99.90
12761;DHT22;6444;49.742;6.114;2023-03-20T13:30:32;13.30;99.90
12761;DHT22;6444;49.742;6.114;2023-03-20T13:35:56;13.40;99.90
12761;DHT22;6444;49.742;6.114;2023-03-20T13:38:22;14.00;99.90
12761;DHT22;6444;49.742;6.114;2023-03-20T13:40:49;13.90;99.90
12761;DHT22;6444;49.742;6.114;2023-03-20T13:43:36;13.70;99.90
12761;DHT22;6444;49.742;6.114;2023-03-20T13:46:08;13.30;99.90
12761;DHT22;6444;49.742;6.114;2023-03-20T13:48:41;12.90;99.90
12761;DHT22;6444;49.742;6.114;2023-03-20T13:51:29;12.80;99.90
12761;DHT22;6444;49.742;6.114;2023-03-20T14:04:33;12.80;99.90
12761;DHT22;6444;49.742;6.114;2023-03-20T14:06:59;13.10;99.90
12761;DHT22;6444;49.742;6.114;2023-03-20T14:09:27;13.00;99.90
12761;DHT22;6444;49.742;6.114;2023-03-20T14:11:53;13.10;99.90
12761;DHT22;6444;49.742;6.114;2023-03-20T14:14:24;13.00;99.90
12761;DHT22;6444;49.742;6.114;2023-03-20T14:16:58;13.30;99.90
12761;DHT22;6444;49.742;6.114;2023-03-20T14:19:23;13.40;99.90
12761;DHT22;6444;49.742;6.114;2023-03-20T14:21:49;13.20;99.90
12761;DHT22;6444;49.742;6.114;2023-03-20T14:24:14;13.50;99.90
12761;DHT22;6444;49.742;6.114;2023-03-20T14:26:41;13.50;99.90
12761;DHT22;6444;49.742;6.114;2023-03-20T14:31:36;13.00;99.90
12761;DHT22;6444;49.742;6.114;2023-03-20T14:36:44;13.10;99.90
12761;DHT22;6444;49.742;6.114;2023-03-20T14:39:11;13.00;99.90
12761;DHT22;6444;49.742;6.114;2023-03-20T14:41:40;13.00;99.90
12761;DHT22;6444;49.742;6.114;2023-03-20T14:47:00;12.50;99.90
12761;DHT22;6444;49.742;6.114;2023-03-20T14:52:39;12.30;99.90
12761;DHT22;6444;49.742;6.114;2023-03-20T14:55:14;12.30;99.90
12761;DHT22;6444;49.742;6.114;2023-03-20T14:57:39;12.20;99.90
12761;DHT22;6444;49.742;6.114;2023-03-20T15:00:19;12.50;99.90
12761;DHT22;6444;49.742;6.114;2023-03-20T15:02:49;13.20;99.90
12761;DHT22;6444;49.742;6.114;2023-03-20T15:05:24;13.50;99.90
12761;DHT22;6444;49.742;6.114;2023-03-20T15:07:50;13.40;99.90
12761;DHT22;6444;49.742;6.114;2023-03-20T15:10:16;13.40;99.90
12761;DHT22;6444;49.742;6.114;2023-03-20T15:12:43;12.90;99.90
12761;DHT22;6444;49.742;6.114;2023-03-20T15:15:26;12.70;99.90
12761;DHT22;6444;49.742;6.114;2023-03-20T15:17:51;12.80;99.90
12761;DHT22;6444;49.742;6.114;2023-03-20T15:23:00;13.10;99.90
12761;DHT22;6444;49.742;6.114;2023-03-20T15:25:46;12.70;99.90
12761;DHT22;6444;49.742;6.114;2023-03-20T15:27:50;12.70;99.90
12761;DHT22;6444;49.742;6.114;2023-03-20T15:30:18;12.90;99.90
12761;DHT22;6444;49.742;6.114;2023-03-20T15:32:44;12.90;99.90
12761;DHT22;6444;49.742;6.114;2023-03-20T15:35:14;13.10;99.90
12761;DHT22;6444;49.742;6.114;2023-03-20T15:37:41;13.60;99.90
12761;DHT22;6444;49.742;6.114;2023-03-20T15:40:11;13.50;99.90
12761;DHT22;6444;49.742;6.114;2023-03-20T15:42:36;12.90;99.90
12761;DHT22;6444;49.742;6.114;2023-03-20T15:45:15;12.90;99.90
12761;DHT22;6444;49.742;6.114;2023-03-20T15:47:30;13.30;99.90
12761;DHT22;6444;49.742;6.114;2023-03-20T15:49:57;13.10;99.90
12761;DHT22;6444;49.742;6.114;2023-03-20T15:52:41;13.20;99.90
12761;DHT22;6444;49.742;6.114;2023-03-20T15:55:15;13.20;99.90
12761;DHT22;6444;49.742;6.114;2023-03-20T15:57:40;13.30;99.90
12761;DHT22;6444;49.742;6.114;2023-03-20T16:00:08;13.30;99.90
12761;DHT22;6444;49.742;6.114;2023-03-20T16:02:33;13.00;99.90
12761;DHT22;6444;49.742;6.114;2023-03-20T16:05:00;13.20;99.90
12761;DHT22;6444;49.742;6.114;2023-03-20T16:07:28;13.40;99.90
12761;DHT22;6444;49.742;6.114;2023-03-20T16:09:53;13.50;99.90
12761;DHT22;6444;49.742;6.114;2023-03-20T16:12:20;13.30;99.90
12761;DHT22;6444;49.742;6.114;2023-03-20T16:14:47;13.60;99.90
12761;DHT22;6444;49.742;6.114;2023-03-20T16:17:13;13.80;99.90
12761;DHT22;6444;49.742;6.114;2023-03-20T16:19:40;13.70;99.90
12761;DHT22;6444;49.742;6.114;2023-03-20T16:24:43;12.70;99.90
12761;DHT22;6444;49.742;6.114;2023-03-20T16:27:09;12.30;99.90
12761;DHT22;6444;49.742;6.114;2023-03-20T16:29:35;12.40;99.90
12761;DHT22;6444;49.742;6.114;2023-03-20T16:32:53;12.30;99.90
12761;DHT22;6444;49.742;6.114;2023-03-20T16:34:33;12.30;99.90
12761;DHT22;6444;49.742;6.114;2023-03-20T16:36:59;12.10;99.90
12761;DHT22;6444;49.742;6.114;2023-03-20T16:39:27;12.30;99.90
12761;DHT22;6444;49.742;6.114;2023-03-20T16:44:28;12.50;99.90
12761;DHT22;6444;49.742;6.114;2023-03-20T16:47:00;12.40;99.90
12761;DHT22;6444;49.742;6.114;2023-03-20T16:52:02;12.10;99.90
12761;DHT22;6444;49.742;6.114;2023-03-20T16:54:29;12.40;99.90
12761;DHT22;6444;49.742;6.114;2023-03-20T16:56:55;12.80;99.90
12761;DHT22;6444;49.742;6.114;2023-03-20T16:59:22;12.60;99.90
12761;DHT22;6444;49.742;6.114;2023-03-20T17:01:48;12.20;99.90
12761;DHT22;6444;49.742;6.114;2023-03-20T17:04:18;11.90;99.90
12761;DHT22;6444;49.742;6.114;2023-03-20T17:06:49;12.20;99.90
12761;DHT22;6444;49.742;6.114;2023-03-20T17:11:39;12.20;99.90
12761;DHT22;6444;49.742;6.114;2023-03-20T17:14:05;12.40;99.90
12761;DHT22;6444;49.742;6.114;2023-03-20T17:16:32;12.30;99.90
12761;DHT22;6444;49.742;6.114;2023-03-20T17:19:00;12.30;99.90
12761;DHT22;6444;49.742;6.114;2023-03-20T17:21:26;12.10;99.90
12761;DHT22;6444;49.742;6.114;2023-03-20T17:23:52;12.20;99.90
12761;DHT22;6444;49.742;6.114;2023-03-20T17:26:19;12.00;99.90
12761;DHT22;6444;49.742;6.114;2023-03-20T17:28:46;11.80;99.90
12761;DHT22;6444;49.742;6.114;2023-03-20T17:31:14;11.80;99.90
12761;DHT22;6444;49.742;6.114;2023-03-20T17:33:40;11.80;99.90
12761;DHT22;6444;49.742;6.114;2023-03-20T17:36:25;11.80;99.90
12761;DHT22;6444;49.742;6.114;2023-03-20T17:38:42;12.20;99.90
12761;DHT22;6444;49.742;6.114;2023-03-20T17:41:16;11.90;99.90
12761;DHT22;6444;49.742;6.114;2023-03-20T17:43:38;11.80;99.90
12761;DHT22;6444;49.742;6.114;2023-03-20T17:46:05;11.70;99.90
12761;DHT22;6444;49.742;6.114;2023-03-20T17:48:31;12.00;99.90
12761;DHT22;6444;49.742;6.114;2023-03-20T17:50:58;12.10;99.90
12761;DHT22;6444;49.742;6.114;2023-03-20T17:53:25;11.90;99.90
12761;DHT22;6444;49.742;6.114;2023-03-20T17:55:51;11.70;99.90
12761;DHT22;6444;49.742;6.114;2023-03-20T17:58:19;11.40;99.90
12761;DHT22;6444;49.742;6.114;2023-03-20T18:00:45;11.20;99.90
12761;DHT22;6444;49.742;6.114;2023-03-20T18:03:11;11.30;99.90
12761;DHT22;6444;49.742;6.114;2023-03-20T18:05:38;11.70;99.90
12761;DHT22;6444;49.742;6.114;2023-03-20T18:08:09;11.60;99.90
12761;DHT22;6444;49.742;6.114;2023-03-20T18:10:32;11.50;99.90
12761;DHT22;6444;49.742;6.114;2023-03-20T18:12:58;10.90;99.90
12761;DHT22;6444;49.742;6.114;2023-03-20T18:15:25;10.70;99.90
12761;DHT22;6444;49.742;6.114;2023-03-20T18:17:52;11.00;99.90
12761;DHT22;6444;49.742;6.114;2023-03-20T18:20:28;11.50;99.90